Latest Weather Observations for Hay Airport

IDN60801

Issued at 1:23 pm EDT Tuesday 10 December 2019 (issued every 10 minutes, with the page automatically refreshed every 10 minutes)

About weather observations | Map of weather stations | Latest weather observations for NSW | Other Formats
Station Details ID: 075019 Name: HAY AIRPORT AWS Lat: -34.54 Lon: 144.83 Height: 92.0 m
Data from the previous 72 hours. | See also: Recent months at Hay Airport
Date/Time
EDT
Temp
°C
App
Temp
°C
Dew
Point
°C
Rel
Hum
%
Delta-T
°C
Wind Press
QNH
hPa
Press
MSL
hPa
Rain since
9am
mm
Dir  Spd
km/h
Gust
km/h
Spd
kts
Gust
kts
10/01:00pm 32.3 27.1 7.2 21 13.8 SW 24 32 13 17 1014.3 1013.9 0.0
10/12:30pm 31.4 25.7 8.4 24 12.8 SW 28 39 15 21 1014.6 1014.2 0.0
10/12:00pm 31.1 25.9 8.8 25 12.5 SW 26 33 14 18 1014.8 1014.4 0.0
10/11:30am 29.9 24.7 8.9 27 11.7 SW 26 35 14 19 1015.0 1014.6 0.0
10/11:00am 29.0 24.2 8.7 28 11.2 SW 24 37 13 20 1015.1 1014.7 0.0
10/10:30am 27.9 22.5 8.2 29 10.7 SW 26 35 14 19 1015.2 1014.8 0.0
10/10:00am 27.8 22.8 8.1 29 10.7 SSW 24 35 13 19 1015.2 1014.8 0.0
10/09:30am 26.8 21.5 8.3 31 10.0 SW 26 37 14 20 1015.2 1014.8 0.0
10/09:00am 25.4 19.6 8.0 33 9.3 SW 28 35 15 19 1015.3 1014.9 0.0
10/08:30am 24.2 18.7 7.4 34 8.8 SW 26 35 14 19 1014.9 1014.5 0.0
10/08:00am 23.2 17.5 6.9 35 8.4 SW 26 32 14 17 1014.6 1014.2 0.0
10/07:30am 22.8 17.3 7.4 37 8.0 SW 26 35 14 19 1014.1 1013.7 0.0
10/07:00am 22.0 17.2 7.4 39 7.6 SW 22 28 12 15 1013.8 1013.4 0.0
10/06:30am 21.1 16.9 7.3 41 7.1 SW 19 26 10 14 1013.6 1013.2 0.0
10/06:00am 20.6 15.7 6.9 41 7.0 WSW 22 37 12 20 1013.3 1012.9 0.0
10/05:51am 20.0 18.0 7.1 43 6.6 SE 7 37 4 20 1013.3 1012.9 0.0
10/05:30am 20.6 18.6 7.2 42 6.9 S 7 9 4 5 1012.3 1011.9 0.0
10/05:00am 21.7 19.0 7.2 39 7.5 S 11 15 6 8 1012.3 1011.9 0.0
10/04:30am 22.7 18.8 6.9 36 8.2 SSW 17 24 9 13 1012.3 1011.9 0.0
10/04:00am 23.8 19.2 6.6 33 8.9 SSW 20 24 11 13 1012.5 1012.1 0.0
10/03:30am 24.8 20.1 6.1 30 9.7 SW 20 28 11 15 1012.4 1012.0 0.0
10/03:00am 25.5 20.2 6.7 30 9.9 SSW 24 35 13 19 1012.3 1011.9 0.0
10/02:30am 25.7 21.1 8.2 33 9.4 SW 22 28 12 15 1012.7 1012.3 0.0
10/02:00am 26.4 22.1 7.9 31 10.0 SW 20 28 11 15 1012.7 1012.3 0.0
10/01:30am 27.3 22.2 7.7 29 10.6 SW 24 30 13 16 1012.5 1012.1 0.0
10/01:00am 27.7 22.2 4.1 22 12.0 WSW 22 30 12 16 1012.6 1012.2 0.0
10/12:30am 26.9 21.4 -1.9 15 13.0 WSW 17 24 9 13 1012.5 1012.1 0.0
10/12:00am 28.3 23.2 -1.7 14 13.8 WSW 15 19 8 10 1012.5 1012.1 0.0
 
Date/Time
EDT
Temp
°C
App
Temp
°C
Dew
Point
°C
Rel
Hum
%
Delta-T
°C
Wind Press
QNH
hPa
Press
MSL
hPa
Rain since
9am
mm
Dir  Spd
km/h
Gust
km/h
Spd
kts
Gust
kts
09/11:30pm 29.3 24.1 -3.0 12 14.6 SW 15 20 8 11 1012.4 1012.0 0.0
09/11:00pm 31.9 25.3 -3.5 10 16.2 SSW 22 26 12 14 1012.4 1012.0 0.0
09/10:30pm 33.5 26.1 -3.7 9 17.2 SSW 26 41 14 22 1012.2 1011.8 0.0
09/10:23pm 33.7 27.5 -3.5 9 17.3 SSW 20 41 11 22 1012.0 1011.6 0.0
09/10:00pm 28.0 25.4 -5.2 11 14.3 CALM 0 6 0 3 1011.6 1011.2 0.0
09/09:30pm 30.0 26.3 -4.9 10 15.4 E 6 7 3 4 1011.4 1011.0 0.0
09/09:00pm 30.0 27.1 -7.8 8 15.8 CALM 0 0 0 0 1011.3 1010.9 0.0
09/08:30pm 33.9 29.8 -6.7 7 17.9 NNE 7 9 4 5 1011.1 1010.8 0.0
09/08:00pm 35.4 30.8 -7.6 6 18.9 N 9 11 5 6 1010.9 1010.6 0.0
09/07:30pm 38.7 34.1 -7.6 5 20.9 W 9 17 5 9 1010.7 1010.4 0.0
09/07:00pm 39.8 34.9 -6.9 5 21.5 WSW 11 17 6 9 1010.6 1010.3 0.0
09/06:30pm 39.6 35.2 -9.9 4 21.7 WSW 7 13 4 7 1010.5 1010.2 0.0
09/06:00pm 40.4 34.5 -9.3 4 22.1 WSW 15 26 8 14 1010.6 1010.3 0.0
09/05:30pm 39.5 34.0 -9.9 4 21.6 WNW 13 20 7 11 1010.7 1010.4 0.0
09/05:00pm 39.8 34.3 -9.7 4 21.8 NNW 13 24 7 13 1011.0 1010.7 0.0
09/04:30pm 39.9 33.3 -9.7 4 21.9 W 19 28 10 15 1011.5 1011.1 0.0
09/04:00pm 40.6 34.0 -9.2 4 22.2 NW 19 26 10 14 1011.9 1011.5 0.0
09/03:30pm 40.2 33.0 -9.5 4 22.0 WNW 22 33 12 18 1012.1 1011.7 0.0
09/03:00pm 39.0 33.8 -10.3 4 21.4 NNW 11 28 6 15 1012.5 1012.1 0.0
09/02:30pm 39.9 35.4 -6.8 5 21.5 WNW 9 22 5 12 1012.9 1012.5 0.0
09/02:00pm 39.3 33.2 -7.2 5 21.2 NNW 17 32 9 17 1013.5 1013.1 0.0
09/01:30pm 38.1 32.0 -8.1 5 20.6 WNW 17 26 9 14 1013.9 1013.5 0.0
09/01:00pm 38.2 31.9 -5.6 6 20.3 NW 19 32 10 17 1014.3 1013.9 0.0
09/12:30pm 37.3 30.8 -6.3 6 19.9 NNW 20 30 11 16 1014.5 1014.1 0.0
09/12:00pm 38.0 31.0 -3.7 7 19.9 NNW 24 35 13 19 1014.8 1014.4 0.0
09/11:30am 36.1 29.5 -3.3 8 18.7 N 22 39 12 21 1015.2 1014.8 0.0
09/11:00am 35.6 28.4 -2.1 9 18.1 N 26 33 14 18 1015.4 1015.0 0.0
09/10:30am 35.0 27.9 -1.1 10 17.6 N 26 35 14 19 1015.7 1015.3 0.0
09/10:00am 33.2 25.7 -1.2 11 16.5 NNE 28 35 15 19 1015.7 1015.3 0.0
09/09:30am 32.1 24.7 -0.9 12 15.8 NNE 28 37 15 20 1015.8 1015.4 0.0
09/09:00am 30.2 22.7 -1.2 13 14.7 NNE 28 41 15 22 1015.7 1015.3 0.0
09/08:30am 28.6 22.7 -0.5 15 13.7 NNE 20 26 11 14 1015.6 1015.2 0.0
09/08:00am 26.7 20.9 -0.3 17 12.6 NE 20 26 11 14 1015.4 1015.0 0.0
09/07:30am 25.9 20.3 -0.2 18 12.1 NE 19 24 10 13 1015.0 1014.6 0.0
09/07:00am 24.5 18.6 -0.6 19 11.4 ENE 20 26 11 14 1014.9 1014.5 0.0
09/06:30am 23.7 17.8 -0.6 20 11.0 ENE 20 28 11 15 1014.8 1014.4 0.0
09/06:00am 22.6 18.1 -0.2 22 10.3 ENE 13 19 7 10 1014.6 1014.2 0.0
09/05:30am 21.9 17.4 -0.1 23 9.9 NE 13 15 7 8 1014.3 1013.9 0.0
09/05:00am 23.1 18.2 -0.4 21 10.6 NE 15 20 8 11 1014.4 1014.0 0.0
09/04:30am 22.2 17.5 0.7 24 9.8 NE 15 17 8 9 1014.2 1013.8 0.0
09/04:00am 22.5 18.0 -0.3 22 10.3 ENE 13 15 7 8 1014.3 1013.9 0.0
09/03:30am 23.1 18.2 -0.4 21 10.6 ENE 15 17 8 9 1014.5 1014.1 0.0
09/03:00am 23.3 18.0 -0.9 20 10.8 ENE 17 19 9 10 1014.7 1014.3 0.0
09/02:30am 22.6 17.9 -1.5 20 10.6 ENE 13 15 7 8 1015.1 1014.7 0.0
09/02:00am 22.2 17.9 -1.8 20 10.5 ENE 11 13 6 7 1015.3 1014.9 0.0
09/01:30am 21.9 17.6 -2.0 20 10.4 ENE 11 13 6 7 1015.5 1015.1 0.0
09/01:00am 21.3 17.0 -1.9 21 10.0 E 11 13 6 7 1015.6 1015.2 0.0
09/12:30am 19.5 15.6 -4.7 19 9.7 E 7 9 4 5 1015.7 1015.3 0.0
09/12:00am 21.6 17.5 -3.0 19 10.4 ESE 9 11 5 6 1015.9 1015.5 0.0
 
Date/Time
EDT
Temp
°C
App
Temp
°C
Dew
Point
°C
Rel
Hum
%
Delta-T
°C
Wind Press
QNH
hPa
Press
MSL
hPa
Rain since
9am
mm
Dir  Spd
km/h
Gust
km/h
Spd
kts
Gust
kts
08/11:30pm 22.5 18.0 -3.0 18 10.9 SE 11 13 6 7 1015.9 1015.5 0.0
08/11:00pm 22.4 18.2 -3.8 17 11.0 SE 9 11 5 6 1016.0 1015.6 0.0
08/10:30pm 22.3 19.1 -3.1 18 10.8 ESE 4 11 2 6 1015.8 1015.4 0.0
08/10:00pm 23.2 20.7 -4.0 16 11.5 CALM 0 0 0 0 1015.9 1015.5 0.0
08/09:30pm 24.8 22.3 -3.6 15 12.2 CALM 0 0 0 0 1015.7 1015.3 0.0
08/09:00pm 26.9 24.4 -3.8 13 13.4 CALM 0 0 0 0 1015.4 1015.0 0.0
08/08:30pm 29.6 27.0 -5.2 10 15.2 CALM 0 0 0 0 1015.3 1014.9 0.0
08/08:00pm 32.0 29.4 -4.8 9 16.5 CALM 0 0 0 0 1015.1 1014.7 0.0
08/07:30pm 33.1 30.6 -4.0 9 17.0 CALM 0 0 0 0 1014.8 1014.4 0.0
08/07:00pm 33.2 29.4 -3.9 9 17.0 ENE 7 13 4 7 1014.4 1014.0 0.0
08/06:30pm 34.0 31.0 -4.9 8 17.7 W 2 9 1 5 1014.2 1013.8 0.0
08/06:00pm 33.6 29.4 -3.6 9 17.2 ESE 9 20 5 11 1014.1 1013.7 0.0
08/05:30pm 33.9 30.0 -4.9 8 17.6 NW 7 28 4 15 1014.2 1013.8 0.0
08/05:00pm 34.6 30.3 -4.4 8 17.9 WSW 9 13 5 7 1014.4 1014.0 0.0
08/04:30pm 33.6 28.9 -5.2 8 17.5 SE 11 19 6 10 1014.6 1014.2 0.0
08/04:00pm 32.6 28.9 -4.3 9 16.7 ENE 6 13 3 7 1014.9 1014.5 0.0
08/03:30pm 33.1 28.9 -4.0 9 17.0 SSE 9 17 5 9 1015.1 1014.7 0.0
08/03:00pm 32.4 28.1 -4.5 9 16.7 S 9 17 5 9 1015.3 1014.9 0.0
08/02:30pm 31.9 26.6 -3.5 10 16.2 ESE 15 33 8 18 1015.7 1015.3 0.0
08/02:00pm 31.1 27.4 -4.1 10 15.8 WNW 6 11 3 6 1016.0 1015.6 0.0
08/01:30pm 30.5 26.6 -4.5 10 15.6 NE 7 20 4 11 1016.5 1016.1 0.0
08/01:00pm 30.1 25.8 -1.3 13 14.7 S 11 24 6 13 1016.7 1016.3 0.0
08/12:30pm 30.2 25.6 -1.2 13 14.8 ESE 13 20 7 11 1016.9 1016.5 0.0
08/12:00pm 29.0 25.3 -0.2 15 13.8 SSW 9 15 5 8 1017.2 1016.8 0.0
08/11:30am 29.2 25.5 -0.1 15 13.9 SW 9 17 5 9 1017.6 1017.2 0.0
08/11:00am 28.4 24.5 1.0 17 13.2 ENE 11 19 6 10 1017.7 1017.3 0.0
08/10:30am 26.8 23.7 1.3 19 12.2 E 7 15 4 8 1017.7 1017.3 0.0
08/10:00am 26.3 22.6 2.3 21 11.7 NE 11 20 6 11 1017.8 1017.4 0.0
08/09:30am 25.3 20.9 2.7 23 11.0 E 15 20 8 11 1017.7 1017.3 0.0
08/09:00am 24.0 19.4 3.9 27 9.9 E 17 22 9 12 1017.7 1017.3 0.0
08/08:30am 22.0 17.9 4.1 31 8.7 E 15 20 8 11 1017.6 1017.2 0.0
08/08:00am 19.5 15.3 3.6 35 7.5 E 15 20 8 11 1017.4 1017.0 0.0
08/07:30am 17.4 13.7 2.2 36 6.9 ESE 11 15 6 8 1017.3 1016.9 0.0
08/07:00am 14.6 10.5 0.1 37 6.1 ESE 11 13 6 7 1017.0 1016.6 0.0
08/06:30am 12.7 8.9 -0.5 40 5.4 ESE 9 11 5 6 1016.8 1016.4 0.0
08/06:00am 11.6 8.0 -2.2 38 5.4 ESE 7 9 4 5 1016.6 1016.2 0.0
08/05:30am 12.6 8.3 -1.7 37 5.7 SE 11 13 6 7 1016.4 1016.0 0.0
08/05:00am 13.8 9.5 -1.4 35 6.2 ESE 11 11 6 6 1015.9 1015.5 0.0
08/04:30am 13.9 10.4 -1.7 34 6.3 E 7 9 4 5 1015.8 1015.4 0.0
08/04:00am 13.6 9.4 -3.6 30 6.6 SE 9 13 5 7 1015.6 1015.2 0.0
08/03:30am 13.0 9.4 -3.3 32 6.3 S 6 9 3 5 1015.5 1015.1 0.0
08/03:00am 14.3 10.4 -1.3 34 6.4 W 9 11 5 6 1015.4 1015.0 0.0
08/02:30am 14.3 11.3 -2.1 32 6.6 NW 4 7 2 4 1015.2 1014.8 0.0
08/02:00am 15.1 12.8 -2.3 30 7.0 CALM 0 0 0 0 1015.5 1015.1 0.0
08/01:30am 15.3 12.6 -2.6 29 7.2 ENE 2 6 1 3 1015.8 1015.4 0.0
08/01:00am 16.0 13.6 -3.0 27 7.6 CALM 0 0 0 0 1015.9 1015.5 0.0
08/12:30am 15.3 12.5 -3.6 27 7.4 E 2 7 1 4 1015.9 1015.5 0.0
08/12:00am 16.9 14.5 -3.2 25 8.1 CALM 0 0 0 0 1016.1 1015.7 0.0
 
Date/Time
EDT
Temp
°C
App
Temp
°C
Dew
Point
°C
Rel
Hum
%
Delta-T
°C
Wind Press
QNH
hPa
Press
MSL
hPa
Rain since
9am
mm
Dir  Spd
km/h
Gust
km/h
Spd
kts
Gust
kts
07/11:30pm 17.4 15.0 -2.8 25 8.3 CALM 0 6 0 3 1016.3 1015.9 0.0
07/11:00pm 19.4 15.2 -3.5 21 9.4 S 9 13 5 7 1016.3 1015.9 0.0
07/10:30pm 20.6 16.1 -3.1 20 9.9 S 11 13 6 7 1016.2 1015.8 0.0
07/10:00pm 22.4 17.2 -3.1 18 10.9 S 15 17 8 9 1016.0 1015.6 0.0
07/09:30pm 21.6 16.7 -3.7 18 10.6 SSW 13 15 7 8 1015.9 1015.5 0.0
07/09:00pm 22.9 18.0 -3.4 17 11.2 SSW 13 15 7 8 1015.6 1015.2 0.0
07/08:30pm 24.8 19.9 -3.6 15 12.2 SSW 13 17 7 9 1015.1 1014.7 0.0
07/08:00pm 26.9 21.2 -3.8 13 13.4 SW 17 22 9 12 1014.6 1014.2 0.0
07/07:30pm 27.7 21.6 -4.3 12 14.0 SSW 19 28 10 15 1014.4 1014.0 0.0
07/07:00pm 28.6 22.9 -3.6 12 14.3 SW 17 22 9 12 1014.0 1013.6 0.0
07/06:30pm 28.5 21.9 -3.6 12 14.3 SW 22 32 12 17 1013.8 1013.4 0.0
07/06:00pm 28.8 22.3 -2.3 13 14.2 WSW 22 32 12 17 1013.9 1013.5 0.0
07/05:30pm 28.8 22.2 -3.4 12 14.4 WSW 22 30 12 16 1014.0 1013.6 0.0
07/05:00pm 28.8 22.9 -2.3 13 14.2 SW 19 32 10 17 1014.0 1013.6 0.0
07/04:30pm 28.6 23.4 -2.5 13 14.1 SSW 15 26 8 14 1014.1 1013.7 0.0
07/04:00pm 28.2 22.7 -1.8 14 13.7 WSW 17 28 9 15 1014.3 1013.9 0.0
07/03:30pm 27.7 22.9 -2.2 14 13.6 SW 13 22 7 12 1014.5 1014.1 0.0
07/03:00pm 27.4 22.7 -1.5 15 13.2 W 13 22 7 12 1014.6 1014.2 0.0
07/02:30pm 26.8 21.3 -2.0 15 13.0 S 17 24 9 13 1015.1 1014.7 0.0
07/02:00pm 26.2 21.9 -1.6 16 12.6 S 11 24 6 13 1015.4 1015.0 0.0
07/01:30pm 26.4 21.4 -1.4 16 12.7 SW 15 24 8 13 1015.6 1015.2 0.0

Other formats

Comma delimited format used in spreadsheet applications
http://www.bom.gov.au/fwo/IDN60801/IDN60801.94702.axf

JavaScript Object Notation format (JSON) in row-major order
http://www.bom.gov.au/fwo/IDN60801/IDN60801.94702.json

Data quality

Most of these data are generated automatically and are frequently updated. Quality checks on data are not normally performed. It is possible for incorrect values to appear. Refer to information at About Latest Weather Observations and please check the disclaimer before using these data.